Time;durP1;ratioP1;P1;durP2;ratioP2;P2;SDS_P1;SDS_P2;PMS_P1;PMS_P2;Temp;Humidity;BMP_temperature;BMP_pressure;BME280_temperature;BME280_humidity;BME280_pressure;Samples;Min_cycle;Max_cycle;Signal;HPM_P1;HPM_P2
2023/04/07 00:02:05;;;;;;;18.90;12.20;;;;;;;2.54;96.19;100133.66;131126;1262;105648;-75
2023/04/07 00:05:10;;;;;;;16.70;11.30;;;;;;;2.57;95.82;100128.73;132249;1248;107522;-76
2023/04/07 00:08:16;;;;;;;19.70;11.70;;;;;;;2.57;96.06;100125.22;131569;1253;107403;-75
2023/04/07 00:11:21;;;;;;;17.70;11.80;;;;;;;2.53;96.09;100120.36;131341;1253;107595;-75
2023/04/07 00:14:26;;;;;;;14.80;10.50;;;;;;;2.51;96.34;100124.07;131175;1257;106771;-74
2023/04/07 00:17:32;;;;;;;18.60;10.90;;;;;;;2.50;96.43;100126.54;131151;1254;107511;-75
2023/04/07 00:20:37;;;;;;;16.90;11.20;;;;;;;2.54;96.12;100121.75;131217;1252;108716;-75
2023/04/07 00:23:43;;;;;;;18.70;12.20;;;;;;;2.58;95.67;100120.80;131138;1253;107572;-75
2023/04/07 00:26:49;;;;;;;17.80;11.60;;;;;;;2.60;95.89;100118.02;131122;1263;107545;-76
2023/04/07 00:29:55;;;;;;;19.20;12.80;;;;;;;2.55;96.32;100117.60;131112;1252;105948;-75
2023/04/07 00:33:00;;;;;;;20.60;12.10;;;;;;;2.54;95.89;100117.34;131011;1263;137207;-76
2023/04/07 00:36:07;;;;;;;19.70;10.90;;;;;;;2.57;96.08;100115.95;131022;1254;107456;-75
2023/04/07 00:39:12;;;;;;;16.60;11.80;;;;;;;2.59;95.90;100112.66;131164;1263;107438;-75
2023/04/07 00:42:17;;;;;;;17.40;11.80;;;;;;;2.62;96.21;100114.70;130965;1254;107499;-76
2023/04/07 00:45:23;;;;;;;19.00;11.80;;;;;;;2.59;96.40;100114.36;131125;1256;107508;-75
2023/04/07 00:48:28;;;;;;;15.80;10.90;;;;;;;2.59;95.83;100110.33;131199;1254;107546;-75
2023/04/07 00:51:35;;;;;;;17.70;10.40;;;;;;;2.62;95.70;100108.89;131041;1263;107416;-75
2023/04/07 00:54:41;;;;;;;14.80;10.40;;;;;;;2.64;96.18;100108.02;131336;1254;106629;-73
2023/04/07 00:57:47;;;;;;;14.30;10.00;;;;;;;2.64;96.52;100105.77;131180;1263;106444;-75
2023/04/07 01:01:02;;;;;;;16.00;10.40;;;;;;;2.65;96.23;100102.86;131370;1261;107450;-75
2023/04/07 01:04:20;;;;;;;17.20;11.20;;;;;;;2.65;95.93;100106.42;131393;1248;107506;-75
2023/04/07 01:07:32;;;;;;;15.20;10.70;;;;;;;2.64;95.77;100098.89;131155;1263;107461;-75
2023/04/07 01:10:51;;;;;;;15.40;10.60;;;;;;;2.68;95.94;100100.73;131353;1261;107488;-76
2023/04/07 01:14:00;;;;;;;15.90;10.80;;;;;;;2.71;95.84;100097.05;131245;1254;107522;-76
2023/04/07 01:17:23;;;;;;;17.00;11.60;;;;;;;2.72;95.95;100096.96;131201;1257;107498;-75
2023/04/07 01:20:33;;;;;;;17.70;11.40;;;;;;;2.74;95.90;100098.23;131269;1261;108509;-75
2023/04/07 01:23:52;;;;;;;15.40;10.50;;;;;;;2.72;95.97;100091.84;131250;1253;107614;-73
2023/04/07 01:27:14;;;;;;;15.50;10.20;;;;;;;2.73;96.27;100090.01;131322;1253;107533;-74
2023/04/07 01:30:20;;;;;;;13.50;9.50;;;;;;;2.73;95.89;100090.20;131234;1257;107366;-75
2023/04/07 01:33:30;;;;;;;13.80;10.00;;;;;;;2.72;96.11;100084.63;131241;1254;107511;-77
2023/04/07 01:36:36;;;;;;;13.70;9.80;;;;;;;2.73;96.30;100078.41;131296;1253;107251;-73
2023/04/07 01:39:42;;;;;;;14.20;10.50;;;;;;;2.70;96.56;100079.70;131356;1253;107677;-73
2023/04/07 01:42:49;;;;;;;13.60;9.40;;;;;;;2.68;96.96;100077.73;131261;1255;107376;-75
2023/04/07 01:45:56;;;;;;;13.10;9.50;;;;;;;2.69;96.67;100080.17;131211;1253;107491;-76
2023/04/07 01:49:02;;;;;;;15.10;9.70;;;;;;;2.70;96.42;100070.19;131167;1256;107463;-74
2023/04/07 01:52:10;;;;;;;16.10;10.60;;;;;;;2.70;96.27;100071.42;131268;1254;107564;-75
2023/04/07 01:55:15;;;;;;;14.70;10.60;;;;;;;2.72;96.31;100067.64;131333;1254;108113;-75
2023/04/07 01:58:30;;;;;;;14.90;10.30;;;;;;;2.77;96.35;100069.23;131245;1253;107421;-76
2023/04/07 02:01:36;;;;;;;15.30;10.50;;;;;;;2.83;96.28;100070.89;131139;1254;107430;-76
2023/04/07 02:04:50;;;;;;;17.60;11.00;;;;;;;2.85;96.28;100061.08;131185;1254;107486;-76
2023/04/07 02:08:02;;;;;;;17.70;11.60;;;;;;;2.81;96.59;100062.11;131207;1262;107559;-75
2023/04/07 02:11:12;;;;;;;18.50;11.80;;;;;;;2.78;96.51;100065.14;131389;1263;107571;-75
2023/04/07 02:14:21;;;;;;;18.20;12.30;;;;;;;2.78;96.60;100063.58;131253;1261;107418;-74
2023/04/07 02:17:40;;;;;;;;;;;;;;;2.81;96.12;100069.10;131280;1261;107438;-74
2023/04/07 02:20:47;;;;;;;19.40;12.90;;;;;;;2.90;95.87;100069.70;131307;1258;107355;-75
2023/04/07 02:23:53;;;;;;;21.60;13.10;;;;;;;2.90;96.22;100068.32;131335;1255;107497;-75
2023/04/07 02:26:59;;;;;;;20.50;13.70;;;;;;;2.85;96.30;100068.63;133702;1249;107559;-74
2023/04/07 02:30:06;;;;;;;20.80;13.40;;;;;;;2.85;96.22;100072.71;133971;1251;108255;-76
2023/04/07 02:33:11;;;;;;;18.40;12.10;;;;;;;2.89;96.24;100070.47;133133;1250;108113;-76
2023/04/07 02:36:17;;;;;;;19.00;12.90;;;;;;;2.92;96.08;100063.45;131295;1261;107466;-75
2023/04/07 02:39:22;;;;;;;18.10;13.00;;;;;;;2.95;96.44;100057.79;131412;1254;105828;-74
2023/04/07 02:42:27;;;;;;;19.90;13.80;;;;;;;2.94;96.18;100052.88;131371;1254;106492;-76
2023/04/07 02:45:34;;;;;;;21.80;14.10;;;;;;;2.93;96.39;100054.17;131411;1254;107460;-74
2023/04/07 02:48:39;;;;;;;19.20;13.10;;;;;;;2.95;96.40;100057.41;131512;1247;107545;-74
2023/04/07 02:51:45;;;;;;;20.30;13.60;;;;;;;2.95;96.56;100061.27;131228;1248;107487;-74
2023/04/07 02:54:51;;;;;;;23.30;15.90;;;;;;;2.99;96.20;100058.58;131354;1248;107522;-74
2023/04/07 02:57:58;;;;;;;22.10;15.30;;;;;;;3.04;96.38;100055.52;131232;1248;107455;-75
2023/04/07 03:01:15;;;;;;;34.80;24.20;;;;;;;3.04;96.10;100051.69;131262;1248;107381;-75
2023/04/07 03:04:21;;;;;;;90.00;46.50;;;;;;;3.03;96.38;100053.48;131119;1254;107513;-76
2023/04/07 03:07:26;;;;;;;46.30;28.80;;;;;;;3.03;96.45;100050.73;131117;1254;107483;-74
2023/04/07 03:10:33;;;;;;;34.20;21.40;;;;;;;3.07;96.12;100051.98;131106;1255;107358;-75
2023/04/07 03:13:39;;;;;;;43.20;27.80;;;;;;;3.10;96.19;100054.43;131397;1254;107309;-72
2023/04/07 03:16:44;;;;;;;24.60;16.50;;;;;;;3.14;95.74;100056.71;131365;1254;107492;-75
2023/04/07 03:19:51;;;;;;;27.90;18.10;;;;;;;3.17;95.81;100060.61;131260;1253;107511;-75
2023/04/07 03:22:58;;;;;;;25.40;18.30;;;;;;;3.19;95.68;100058.36;131222;1254;106429;-75
2023/04/07 03:26:06;;;;;;;29.20;17.30;;;;;;;3.14;95.92;100056.93;131145;1253;107468;-75
2023/04/07 03:29:13;;;;;;;25.70;17.30;;;;;;;3.11;95.79;100056.08;131199;1253;107502;-76
2023/04/07 03:32:20;;;;;;;29.10;18.90;;;;;;;3.13;95.96;100054.16;131208;1247;107397;-75
2023/04/07 03:35:26;;;;;;;24.40;16.50;;;;;;;3.19;95.85;100053.95;131231;1253;107394;-75
2023/04/07 03:38:31;;;;;;;26.50;18.20;;;;;;;3.19;95.91;100052.36;131201;1254;107232;-74
2023/04/07 03:41:39;;;;;;;27.80;17.90;;;;;;;3.19;95.94;100046.02;131210;1253;106405;-76
2023/04/07 03:44:45;;;;;;;25.40;17.00;;;;;;;3.21;95.76;100047.64;131317;1253;107340;-75
2023/04/07 03:47:53;;;;;;;24.30;15.40;;;;;;;3.23;95.14;100045.92;131349;1260;107506;-74
2023/04/07 03:51:00;;;;;;;23.80;15.40;;;;;;;3.30;95.32;100044.52;131406;1254;107416;-74
2023/04/07 03:54:06;;;;;;;23.60;14.90;;;;;;;3.32;95.25;100041.03;131414;1254;107497;-76
2023/04/07 03:57:16;;;;;;;18.40;12.50;;;;;;;3.33;95.18;100042.04;131252;1254;107345;-75
2023/04/07 04:00:23;;;;;;;23.10;15.20;;;;;;;3.33;95.40;100043.23;131406;1254;107486;-75
2023/04/07 04:03:40;;;;;;;22.70;15.10;;;;;;;3.32;95.37;100043.46;131272;1254;107352;-76
2023/04/07 04:07:02;;;;;;;22.50;15.90;;;;;;;3.29;95.67;100043.57;131197;1247;107432;-75
2023/04/07 04:10:21;;;;;;;23.00;14.70;;;;;;;3.22;96.16;100043.20;131238;1261;107429;-73
2023/04/07 04:13:29;;;;;;;21.30;14.50;;;;;;;3.18;96.38;100041.17;131414;1253;107523;-73
2023/04/07 04:16:35;;;;;;;18.90;12.80;;;;;;;3.21;95.78;100048.20;131062;1254;107461;-74
2023/04/07 04:19:43;;;;;;;20.30;14.20;;;;;;;3.33;95.79;100054.52;131124;1263;107419;-75
2023/04/07 04:23:01;;;;;;;20.20;14.10;;;;;;;3.37;95.94;100052.84;131181;1257;107340;-75
2023/04/07 04:26:07;;;;;;;21.90;15.00;;;;;;;3.35;96.04;100056.31;131090;1254;107437;-74
2023/04/07 04:29:13;;;;;;;23.00;15.10;;;;;;;3.32;95.96;100057.73;131346;1247;107377;-75
2023/04/07 04:32:21;;;;;;;22.40;14.10;;;;;;;3.35;95.71;100057.02;131352;1248;107379;-76
2023/04/07 04:35:27;;;;;;;23.40;15.10;;;;;;;3.35;95.81;100059.83;131403;1263;108072;-73
2023/04/07 04:38:43;;;;;;;79.60;44.20;;;;;;;3.32;96.32;100057.54;131269;1253;107493;-75
2023/04/07 04:41:55;;;;;;;27.30;17.30;;;;;;;3.38;96.08;100059.08;131191;1252;107422;-73
2023/04/07 04:45:03;;;;;;;72.90;37.90;;;;;;;3.46;96.02;100054.99;131150;1251;107434;-75
2023/04/07 04:48:09;;;;;;;36.90;23.10;;;;;;;3.50;95.93;100057.64;131246;1261;107459;-75
2023/04/07 04:51:15;;;;;;;22.70;16.00;;;;;;;3.50;95.86;100056.80;131199;1253;107462;-75
2023/04/07 04:54:24;;;;;;;26.60;18.10;;;;;;;3.49;95.62;100054.92;131213;1255;107544;-75
2023/04/07 04:57:29;;;;;;;25.10;17.20;;;;;;;3.51;95.96;100055.47;131392;1261;108573;-75
2023/04/07 05:00:37;;;;;;;21.80;15.30;;;;;;;3.54;96.07;100054.02;131111;1248;107497;-75
2023/04/07 05:03:45;;;;;;;22.90;15.20;;;;;;;3.60;96.01;100051.52;131343;1257;107518;-75
2023/04/07 05:06:55;;;;;;;23.50;14.50;;;;;;;3.64;96.22;100047.33;131223;1254;107468;-75
2023/04/07 05:10:03;;;;;;;26.70;16.70;;;;;;;3.73;96.09;100054.23;131117;1255;107429;-75
2023/04/07 05:13:10;;;;;;;26.10;17.40;;;;;;;3.75;96.06;100047.01;131057;1253;107589;-75
2023/04/07 05:16:16;;;;;;;29.60;17.40;;;;;;;3.71;96.24;100048.59;131175;1263;107397;-75
2023/04/07 05:19:22;;;;;;;25.00;15.10;;;;;;;3.67;96.29;100055.33;131351;1253;107371;-74
2023/04/07 05:22:28;;;;;;;21.80;15.00;;;;;;;3.70;96.52;100054.60;131169;1253;107538;-75
2023/04/07 05:25:34;;;;;;;33.20;21.90;;;;;;;3.78;96.21;100052.11;131225;1253;107458;-75
2023/04/07 05:28:42;;;;;;;23.80;15.90;;;;;;;3.84;96.32;100060.81;131227;1254;107422;-76
2023/04/07 05:31:52;;;;;;;26.80;17.60;;;;;;;3.87;96.38;100064.06;131218;1254;107375;-74
2023/04/07 05:34:59;;;;;;;26.20;16.70;;;;;;;3.87;96.21;100063.88;131227;1254;107448;-75
2023/04/07 05:38:09;;;;;;;26.40;17.00;;;;;;;3.87;96.19;100063.52;131186;1253;107540;-75
2023/04/07 05:41:15;;;;;;;25.40;17.40;;;;;;;3.87;96.73;100062.63;131267;1247;107430;-76
2023/04/07 05:44:21;;;;;;;28.60;20.30;;;;;;;3.91;96.69;100060.95;131116;1253;106666;-75
2023/04/07 05:47:26;;;;;;;27.80;17.50;;;;;;;3.98;96.68;100069.29;131193;1254;107501;-76
2023/04/07 05:50:33;;;;;;;34.50;23.70;;;;;;;4.03;96.86;100065.72;131236;1254;107512;-75
2023/04/07 05:53:40;;;;;;;22.20;14.30;;;;;;;4.06;96.35;100066.00;131201;1253;107611;-75
2023/04/07 05:56:46;;;;;;;26.80;17.30;;;;;;;4.15;96.42;100061.81;131092;1254;107426;-75
2023/04/07 05:59:52;;;;;;;27.30;17.50;;;;;;;4.19;96.50;100057.15;131421;1253;107425;-73
2023/04/07 06:02:57;;;;;;;28.90;19.60;;;;;;;4.21;96.69;100057.09;131358;1254;107400;-76
2023/04/07 06:06:04;;;;;;;28.00;18.00;;;;;;;4.23;96.72;100056.41;131347;1253;107411;-74
2023/04/07 06:09:10;;;;;;;35.30;23.10;;;;;;;4.27;96.86;100056.27;131233;1252;106491;-76
2023/04/07 06:12:15;;;;;;;29.60;18.60;;;;;;;4.23;96.61;100057.15;131067;1247;107534;-75
2023/04/07 06:15:21;;;;;;;30.10;18.20;;;;;;;4.30;96.58;100062.93;131077;1264;107545;-76
2023/04/07 06:18:27;;;;;;;38.30;23.20;;;;;;;4.35;96.65;100057.80;131330;1261;107519;-75
2023/04/07 06:21:32;;;;;;;34.10;21.10;;;;;;;4.42;96.61;100065.95;131339;1247;106400;-75
2023/04/07 06:24:38;;;;;;;33.20;21.10;;;;;;;4.53;96.67;100064.17;131439;1253;107528;-73
2023/04/07 06:27:43;;;;;;;33.30;21.10;;;;;;;4.51;96.44;100064.64;131391;1253;107409;-73
2023/04/07 06:30:49;;;;;;;35.00;21.20;;;;;;;4.52;96.54;100061.42;131259;1248;107087;-75
2023/04/07 06:33:55;;;;;;;33.30;19.70;;;;;;;4.50;96.91;100058.09;131215;1254;107547;-75
2023/04/07 06:37:02;;;;;;;30.30;19.80;;;;;;;4.51;96.85;100056.02;131283;1261;107433;-76
2023/04/07 06:40:09;;;;;;;33.50;22.20;;;;;;;4.55;97.24;100057.02;131070;1254;107348;-75
2023/04/07 06:43:15;;;;;;;34.50;22.00;;;;;;;4.57;96.98;100054.16;131301;1262;107281;-74
2023/04/07 06:46:30;;;;;;;49.40;31.90;;;;;;;4.63;96.98;100054.06;131256;1254;107414;-75
2023/04/07 06:49:35;;;;;;;93.80;46.50;;;;;;;4.66;96.86;100049.09;131276;1253;107438;-75
2023/04/07 06:52:40;;;;;;;29.40;18.90;;;;;;;4.70;97.03;100048.42;131237;1261;106526;-74
2023/04/07 06:55:46;;;;;;;31.20;20.40;;;;;;;4.76;97.15;100048.88;131229;1247;107538;-75
2023/04/07 06:58:52;;;;;;;27.80;17.60;;;;;;;4.83;97.06;100052.89;131237;1253;107555;-75
2023/04/07 07:01:57;;;;;;;30.10;18.90;;;;;;;4.90;96.93;100053.38;131203;1252;107514;-76
2023/04/07 07:05:03;;;;;;;31.20;19.40;;;;;;;4.95;96.91;100052.98;131320;1248;107485;-74
2023/04/07 07:08:09;;;;;;;28.60;18.80;;;;;;;4.99;96.64;100050.14;131426;1248;108123;-76
2023/04/07 07:11:14;;;;;;;29.30;17.70;;;;;;;5.03;96.74;100046.83;131321;1248;107520;-75
2023/04/07 07:14:20;;;;;;;34.20;20.90;;;;;;;5.08;96.75;100043.48;131179;1248;107429;-75
2023/04/07 07:17:25;;;;;;;26.10;17.10;;;;;;;5.07;97.13;100048.14;131218;1248;107531;-74
2023/04/07 07:20:31;;;;;;;26.10;16.80;;;;;;;5.10;97.42;100047.69;131303;1253;105962;-75
2023/04/07 07:23:36;;;;;;;27.60;17.90;;;;;;;5.18;97.51;100044.48;131256;1247;107544;-74
2023/04/07 07:26:42;;;;;;;31.10;19.60;;;;;;;5.20;97.56;100046.06;131268;1249;107527;-77
2023/04/07 07:29:47;;;;;;;34.40;19.60;;;;;;;5.26;97.27;100046.03;131437;1248;107334;-73
2023/04/07 07:32:53;;;;;;;28.20;17.70;;;;;;;5.38;97.48;100049.20;131416;1253;107351;-73
2023/04/07 07:35:58;;;;;;;29.20;19.70;;;;;;;5.47;97.16;100049.52;131462;1250;107353;-74
2023/04/07 07:39:04;;;;;;;36.60;24.20;;;;;;;5.57;97.13;100051.52;131274;1252;106405;-76
2023/04/07 07:42:10;;;;;;;32.50;21.00;;;;;;;5.64;97.18;100051.60;131392;1247;107239;-75
2023/04/07 07:45:18;;;;;;;30.90;20.20;;;;;;;5.70;97.03;100055.33;131212;1251;107428;-75
2023/04/07 07:48:23;;;;;;;30.00;17.50;;;;;;;5.75;97.01;100056.17;131239;1253;105760;-75
2023/04/07 07:51:29;;;;;;;38.90;25.30;;;;;;;5.76;97.25;100057.89;131240;1253;107513;-75
2023/04/07 07:54:34;;;;;;;30.00;21.30;;;;;;;5.82;97.10;100057.39;131341;1253;107553;-75
2023/04/07 07:57:40;;;;;;;48.60;37.50;;;;;;;5.89;96.99;100057.17;131216;1253;108509;-75
2023/04/07 08:00:45;;;;;;;47.00;37.20;;;;;;;5.95;96.94;100057.58;131419;1253;107532;-75
2023/04/07 08:03:51;;;;;;;29.30;17.20;;;;;;;5.97;97.15;100061.31;131400;1254;105476;-75
2023/04/07 08:06:57;;;;;;;49.00;35.40;;;;;;;5.95;97.56;100062.84;131295;1261;106279;-75
2023/04/07 08:10:02;;;;;;;46.80;35.30;;;;;;;6.00;97.65;100064.23;131292;1248;107233;-73
2023/04/07 08:13:08;;;;;;;30.80;22.20;;;;;;;6.11;97.62;100060.33;131230;1248;107527;-75
2023/04/07 08:16:13;;;;;;;32.90;21.90;;;;;;;6.24;97.41;100052.70;131235;1253;106517;-75
2023/04/07 08:19:19;;;;;;;27.40;18.30;;;;;;;6.29;97.57;100052.60;131337;1248;107500;-75
2023/04/07 08:22:24;;;;;;;37.40;26.50;;;;;;;6.35;97.56;100055.16;131184;1252;107492;-76
2023/04/07 08:25:30;;;;;;;23.50;15.70;;;;;;;6.42;97.61;100051.14;131219;1254;107395;-77
2023/04/07 08:28:36;;;;;;;26.00;18.70;;;;;;;6.55;97.60;100047.74;131236;1248;109279;-75
2023/04/07 08:31:41;;;;;;;35.40;24.80;;;;;;;6.68;97.27;100050.65;131267;1253;105857;-75
2023/04/07 08:34:47;;;;;;;29.70;21.60;;;;;;;6.71;97.25;100055.20;131246;1253;107646;-74
2023/04/07 08:37:52;;;;;;;29.30;19.80;;;;;;;6.71;96.97;100058.73;131234;1254;106680;-73
2023/04/07 08:41:02;;;;;;;28.70;18.10;;;;;;;6.71;97.09;100057.48;131164;1248;107544;-75
2023/04/07 08:44:10;;;;;;;28.70;18.40;;;;;;;6.74;97.16;100054.06;131244;1261;107356;-74
2023/04/07 08:47:18;;;;;;;39.50;24.00;;;;;;;6.78;97.18;100050.91;131316;1250;107499;-75
2023/04/07 08:50:26;;;;;;;37.70;24.50;;;;;;;6.77;97.23;100049.92;131461;1253;107368;-73
2023/04/07 08:53:49;;;;;;;38.80;24.50;;;;;;;6.78;97.42;100048.36;131400;1253;107489;-73
2023/04/07 08:56:54;;;;;;;40.20;24.80;;;;;;;6.82;97.19;100052.33;131361;1253;108200;-73
2023/04/07 09:00:04;;;;;;;34.50;21.10;;;;;;;6.79;97.09;100048.34;131329;1254;107473;-75
2023/04/07 09:03:10;;;;;;;61.40;33.20;;;;;;;6.78;97.07;100048.01;131268;1253;106483;-75
2023/04/07 09:06:15;;;;;;;47.40;28.50;;;;;;;6.83;97.27;100051.47;131315;1252;107575;-73
2023/04/07 09:09:23;;;;;;;45.30;27.90;;;;;;;6.93;96.93;100055.73;131318;1253;107541;-75
2023/04/07 09:12:29;;;;;;;37.70;23.60;;;;;;;6.98;96.77;100048.77;131321;1261;107431;-74
2023/04/07 09:15:35;;;;;;;33.40;21.60;;;;;;;7.03;96.88;100045.69;131364;1254;107591;-75
2023/04/07 09:18:41;;;;;;;36.20;25.20;;;;;;;7.07;96.90;100046.90;131230;1253;107486;-75
2023/04/07 09:21:51;;;;;;;37.30;24.20;;;;;;;7.14;97.20;100042.20;131248;1253;107536;-75
2023/04/07 09:25:11;;;;;;;37.60;26.20;;;;;;;7.13;97.08;100038.29;131236;1247;107544;-75
2023/04/07 09:28:17;;;;;;;35.50;23.00;;;;;;;7.07;97.74;100033.46;131225;1247;107446;-75
2023/04/07 09:31:25;;;;;;;33.20;22.20;;;;;;;7.05;97.87;100034.70;131234;1262;108119;-75
2023/04/07 09:34:32;;;;;;;35.60;24.50;;;;;;;7.14;97.85;100031.99;131396;1251;107246;-75
2023/04/07 09:37:37;;;;;;;36.80;25.10;;;;;;;7.25;97.89;100032.77;131287;1251;109242;-75
2023/04/07 09:40:43;;;;;;;37.10;27.10;;;;;;;7.32;97.56;100033.58;131250;1253;107620;-75
2023/04/07 09:43:48;;;;;;;39.40;25.60;;;;;;;7.35;97.81;100033.30;131362;1250;106714;-73
2023/04/07 09:46:56;;;;;;;35.50;22.00;;;;;;;7.39;97.68;100034.88;131161;1252;109315;-73
2023/04/07 09:50:05;;;;;;;34.20;24.30;;;;;;;7.46;97.81;100037.44;131274;1252;105390;-76
2023/04/07 09:53:11;;;;;;;33.50;23.50;;;;;;;7.55;97.85;100035.21;131217;1252;107238;-75
2023/04/07 09:56:18;;;;;;;35.20;25.40;;;;;;;7.60;97.84;100031.52;131203;1251;107360;-76
2023/04/07 09:59:24;;;;;;;30.50;21.10;;;;;;;7.65;97.93;100029.13;131163;1264;107847;-75
2023/04/07 10:02:30;;;;;;;28.40;20.60;;;;;;;7.69;97.83;100030.19;131204;1253;107592;-76
2023/04/07 10:05:36;;;;;;;34.20;22.50;;;;;;;7.72;97.67;100032.41;131302;1253;107584;-75
2023/04/07 10:08:43;;;;;;;35.10;24.50;;;;;;;7.76;97.58;100031.52;131208;1247;107253;-76
2023/04/07 10:11:48;;;;;;;37.70;27.00;;;;;;;7.82;97.51;100032.59;131253;1261;106526;-75
2023/04/07 10:14:54;;;;;;;43.30;30.30;;;;;;;7.85;97.55;100030.67;131298;1253;107636;-75
2023/04/07 10:18:05;;;;;;;33.30;23.20;;;;;;;7.87;97.54;100029.14;131456;1248;107536;-75
2023/04/07 10:21:14;;;;;;;36.10;25.80;;;;;;;7.88;97.80;100027.82;131234;1263;107393;-75
2023/04/07 10:24:30;;;;;;;54.90;36.70;;;;;;;7.94;97.79;100025.98;131449;1252;105695;-75
2023/04/07 10:27:40;;;;;;;57.50;37.80;;;;;;;8.04;97.92;100026.10;131347;1248;107251;-75
2023/04/07 10:30:47;;;;;;;61.70;37.20;;;;;;;8.15;97.96;100027.95;131378;1253;106722;-76
2023/04/07 10:33:55;;;;;;;33.40;23.40;;;;;;;8.22;97.89;100026.38;131286;1254;107226;-74
2023/04/07 10:37:16;;;;;;;23.80;17.20;;;;;;;8.33;97.86;100027.29;131464;1253;107356;-74
2023/04/07 10:40:31;;;;;;;28.70;22.60;;;;;;;8.48;97.67;100028.45;131466;1253;106744;-73
2023/04/07 10:43:43;;;;;;;29.40;21.60;;;;;;;8.59;97.58;100029.67;131335;1253;106698;-76
2023/04/07 10:47:08;;;;;;;29.50;21.70;;;;;;;8.70;97.82;100029.71;131288;1248;107235;-74
2023/04/07 10:50:22;;;;;;;24.70;18.30;;;;;;;8.77;97.40;100026.19;131225;1248;107508;-74
2023/04/07 10:53:27;;;;;;;23.80;16.80;;;;;;;8.84;97.85;100029.46;131395;1247;105594;-74
2023/04/07 10:57:09;;;;;;;26.20;18.80;;;;;;;8.93;97.45;100025.56;131364;1253;107660;-75
2023/04/07 11:00:19;;;;;;;25.70;19.20;;;;;;;9.04;97.82;100027.48;131348;1252;108618;-74
2023/04/07 11:03:25;;;;;;;25.00;19.20;;;;;;;9.07;97.15;100030.64;131418;1253;107369;-74
2023/04/07 11:06:30;;;;;;;26.60;19.10;;;;;;;9.07;97.41;100031.66;131293;1253;107499;-74
2023/04/07 11:09:36;;;;;;;25.50;18.40;;;;;;;9.08;97.17;100032.98;131205;1254;107506;-75
2023/04/07 11:12:42;;;;;;;22.70;17.90;;;;;;;9.14;97.06;100031.95;131297;1251;107516;-76
2023/04/07 11:15:51;;;;;;;26.60;19.10;;;;;;;9.18;97.16;100033.38;131230;1254;107493;-75
2023/04/07 11:18:58;;;;;;;26.70;19.20;;;;;;;9.23;97.00;100031.52;131290;1247;107527;-77
2023/04/07 11:22:17;;;;;;;25.70;20.80;;;;;;;9.27;96.89;100032.20;131207;1253;106533;-75
2023/04/07 11:25:27;;;;;;;23.40;17.70;;;;;;;9.28;96.94;100034.39;131202;1253;107207;-75
2023/04/07 11:28:33;;;;;;;23.60;17.50;;;;;;;9.28;97.11;100038.52;131209;1254;107249;-74
2023/04/07 11:31:39;;;;;;;26.90;21.40;;;;;;;9.30;97.28;100035.61;131430;1247;108134;-74
2023/04/07 11:34:45;;;;;;;27.00;20.90;;;;;;;9.36;97.10;100040.18;131248;1254;107448;-75
2023/04/07 11:37:56;;;;;;;26.30;19.60;;;;;;;9.39;97.13;100038.27;131270;1253;107525;-75
2023/04/07 11:41:12;;;;;;;27.80;19.00;;;;;;;9.43;97.12;100041.79;131208;1253;106819;-74
2023/04/07 11:44:18;;;;;;;24.90;18.50;;;;;;;9.44;96.93;100041.55;131178;1252;106682;-74
2023/04/07 11:47:35;;;;;;;30.40;21.30;;;;;;;9.47;96.92;100045.15;131274;1252;107455;-74
2023/04/07 11:50:42;;;;;;;29.70;20.90;;;;;;;9.54;96.86;100044.32;131265;1253;107417;-74
2023/04/07 11:53:54;;;;;;;29.10;20.40;;;;;;;9.59;97.17;100041.66;131302;1253;107493;-74
2023/04/07 11:57:00;;;;;;;26.60;17.90;;;;;;;9.59;96.95;100043.59;131249;1248;107511;-74
2023/04/07 12:00:12;;;;;;;28.00;19.70;;;;;;;9.57;96.90;100046.14;131381;1250;107445;-74
2023/04/07 12:03:17;;;;;;;28.20;20.70;;;;;;;9.58;97.05;100044.05;131342;1247;107238;-74
2023/04/07 12:06:32;;;;;;;30.00;19.90;;;;;;;9.62;97.18;100044.58;131265;1247;107246;-74
2023/04/07 12:09:38;;;;;;;30.20;21.70;;;;;;;9.67;97.23;100040.73;131382;1253;107501;-74
2023/04/07 12:12:47;;;;;;;26.30;20.40;;;;;;;9.70;96.88;100044.67;131473;1252;107529;-74
2023/04/07 12:15:53;;;;;;;27.80;19.00;;;;;;;9.72;97.18;100038.11;131349;1253;107504;-74
2023/04/07 12:18:58;;;;;;;22.90;17.50;;;;;;;9.75;97.22;100040.11;131293;1253;106825;-74
2023/04/07 12:22:04;;;;;;;29.90;21.10;;;;;;;9.80;97.08;100040.48;131267;1252;108226;-74
2023/04/07 12:25:10;;;;;;;30.70;21.70;;;;;;;9.91;97.30;100040.88;131245;1247;107239;-74
2023/04/07 12:28:16;;;;;;;34.40;22.60;;;;;;;9.99;97.45;100041.05;131243;1253;107492;-74
2023/04/07 12:31:21;;;;;;;28.00;20.20;;;;;;;10.07;97.12;100041.00;131070;1251;183934;-74
2023/04/07 12:34:27;;;;;;;24.30;18.30;;;;;;;10.13;96.97;100039.15;131258;1248;107515;-75
2023/04/07 12:37:32;;;;;;;27.50;21.70;;;;;;;10.24;97.16;100035.20;131257;1254;107254;-74
2023/04/07 12:40:38;;;;;;;27.30;19.70;;;;;;;10.35;97.14;100036.86;131222;1253;107196;-74
2023/04/07 12:43:43;;;;;;;26.20;20.80;;;;;;;10.43;96.66;100040.08;131210;1254;107492;-74
2023/04/07 12:46:49;;;;;;;29.20;21.70;;;;;;;10.47;96.71;100038.94;131216;1252;107529;-74
2023/04/07 12:49:55;;;;;;;28.10;20.00;;;;;;;10.48;97.01;100039.75;131282;1253;107459;-74
2023/04/07 12:53:02;;;;;;;27.30;19.10;;;;;;;10.46;96.61;100041.73;131309;1262;109270;-75
2023/04/07 12:56:08;;;;;;;29.00;18.40;;;;;;;10.44;96.86;100041.19;131223;1254;107215;-74
2023/04/07 12:59:13;;;;;;;25.30;19.50;;;;;;;10.43;97.30;100043.05;131231;1253;107526;-74
2023/04/07 13:02:19;;;;;;;30.30;21.40;;;;;;;10.43;96.93;100042.58;131365;1253;107556;-73
2023/04/07 13:05:26;;;;;;;27.10;20.10;;;;;;;10.41;96.89;100040.96;131170;1253;107559;-74
2023/04/07 13:08:31;;;;;;;24.70;18.70;;;;;;;10.43;97.24;100041.65;131237;1253;107238;-75
2023/04/07 13:11:37;;;;;;;27.70;20.90;;;;;;;10.48;97.30;100043.30;131179;1253;108520;-74
2023/04/07 13:14:43;;;;;;;29.50;21.10;;;;;;;10.52;97.39;100044.08;131193;1254;107505;-74
2023/04/07 13:17:48;;;;;;;29.60;21.30;;;;;;;10.57;96.94;100042.13;131306;1252;107545;-75
2023/04/07 13:20:54;;;;;;;29.20;22.30;;;;;;;10.59;97.00;100043.17;131286;1252;106713;-74
2023/04/07 13:23:59;;;;;;;24.60;19.00;;;;;;;10.55;97.16;100046.45;131231;1247;107534;-74
2023/04/07 13:27:05;;;;;;;29.30;21.60;;;;;;;10.51;97.34;100045.11;131424;1252;107246;-74
2023/04/07 13:30:12;;;;;;;27.90;18.70;;;;;;;10.49;97.64;100045.27;131297;1253;107572;-74
2023/04/07 13:33:17;;;;;;;24.40;19.10;;;;;;;10.47;97.53;100045.44;131396;1254;107490;-73
2023/04/07 13:36:23;;;;;;;25.40;19.20;;;;;;;10.45;97.61;100044.84;131369;1247;107522;-73
2023/04/07 13:39:28;;;;;;;23.60;18.00;;;;;;;10.43;97.81;100048.45;131179;1253;107523;-74
2023/04/07 13:42:34;;;;;;;22.90;16.50;;;;;;;10.41;97.63;100053.05;131213;1253;107293;-74
2023/04/07 13:45:40;;;;;;;24.50;18.70;;;;;;;10.37;97.20;100053.21;131356;1252;107537;-74
2023/04/07 13:48:45;;;;;;;21.10;16.70;;;;;;;10.34;97.56;100061.70;131256;1252;107621;-74
2023/04/07 13:51:50;;;;;;;20.60;16.50;;;;;;;10.31;97.36;100073.80;131394;1248;107568;-74
2023/04/07 13:54:56;;;;;;;16.10;12.00;;;;;;;10.29;97.49;100070.44;131275;1253;106715;-74
2023/04/07 13:58:02;;;;;;;16.10;10.90;;;;;;;10.33;97.08;100072.39;131332;1248;105709;-74
2023/04/07 14:01:08;;;;;;;13.50;9.90;;;;;;;10.42;97.06;100070.02;131198;1248;107540;-74
2023/04/07 14:04:13;;;;;;;13.50;9.60;;;;;;;10.55;96.72;100072.73;131263;1253;106781;-75